createdAt,value
2017-12-27T00:00:32.011Z,937.44
2017-12-27T00:01:32.013Z,937.43
2017-12-27T00:02:32.015Z,937.39
2017-12-27T00:03:32.016Z,937.38
2017-12-27T00:04:32.022Z,937.35
2017-12-27T00:05:32.020Z,937.35
2017-12-27T00:06:32.021Z,937.32
2017-12-27T00:07:32.024Z,937.37
2017-12-27T00:08:32.029Z,937.31
2017-12-27T00:09:32.028Z,937.28
2017-12-27T00:10:32.029Z,937.21
2017-12-27T00:11:32.031Z,937.14
2017-12-27T00:12:32.034Z,937.14
2017-12-27T00:13:32.035Z,937.12
2017-12-27T00:14:32.039Z,937.07
2017-12-27T00:15:32.040Z,937.04
2017-12-27T00:16:32.040Z,936.96
2017-12-27T00:17:32.048Z,936.94
2017-12-27T00:18:32.043Z,936.90
2017-12-27T00:19:32.048Z,936.85
2017-12-27T00:20:32.047Z,936.86
2017-12-27T00:21:32.049Z,936.87
2017-12-27T00:22:32.051Z,936.88
2017-12-27T00:23:32.058Z,936.80
2017-12-27T00:24:32.056Z,936.79
2017-12-27T00:25:32.056Z,936.74
2017-12-27T00:26:32.057Z,936.68
2017-12-27T00:27:32.061Z,936.60
2017-12-27T00:28:32.062Z,936.55
2017-12-27T00:29:32.065Z,936.56
2017-12-27T00:30:32.065Z,936.55
2017-12-27T00:31:32.068Z,936.53
2017-12-27T00:32:32.070Z,936.49
2017-12-27T00:33:32.070Z,936.43
2017-12-27T00:34:32.072Z,936.42
2017-12-27T00:35:32.079Z,936.39
2017-12-27T00:36:32.076Z,936.35
2017-12-27T00:37:32.077Z,936.39
2017-12-27T00:38:32.080Z,936.38
2017-12-27T00:39:32.082Z,936.43
2017-12-27T00:40:32.083Z,936.48
2017-12-27T00:41:32.085Z,936.45
2017-12-27T00:42:32.087Z,936.48
2017-12-27T00:43:32.090Z,936.41
2017-12-27T00:44:32.091Z,936.40
2017-12-27T00:45:32.092Z,936.34
2017-12-27T00:46:32.094Z,936.31
2017-12-27T00:47:32.096Z,936.28
2017-12-27T00:48:32.098Z,936.15
2017-12-27T00:49:32.099Z,936.19
2017-12-27T00:50:32.105Z,936.15
2017-12-27T00:51:32.103Z,936.09
2017-12-27T00:52:32.106Z,936.06
2017-12-27T00:53:32.113Z,936.01
2017-12-27T00:54:32.108Z,936.01
2017-12-27T00:55:32.110Z,935.99
2017-12-27T00:56:32.112Z,936.02
2017-12-27T00:57:32.114Z,936.09
2017-12-27T00:58:32.118Z,936.04
2017-12-27T00:59:32.119Z,935.98
2017-12-27T01:00:32.121Z,935.97
2017-12-27T01:01:32.120Z,935.96
2017-12-27T01:02:32.123Z,935.87
2017-12-27T01:03:32.125Z,935.81
2017-12-27T01:04:32.127Z,935.78
2017-12-27T01:05:32.128Z,935.76
2017-12-27T01:06:32.130Z,935.80
2017-12-27T01:07:32.133Z,935.81
2017-12-27T01:08:32.134Z,935.79
2017-12-27T01:09:32.135Z,935.76
2017-12-27T01:10:32.137Z,935.73
2017-12-27T01:11:32.139Z,935.73
2017-12-27T01:12:32.141Z,935.74
2017-12-27T01:13:32.142Z,935.75
2017-12-27T01:14:32.145Z,935.73
2017-12-27T01:15:32.147Z,935.68
2017-12-27T01:16:32.149Z,935.64
2017-12-27T01:17:32.152Z,935.62
2017-12-27T01:18:32.151Z,935.60
2017-12-27T01:19:32.153Z,935.54
2017-12-27T01:20:32.155Z,935.46
2017-12-27T01:21:32.156Z,935.48
2017-12-27T01:22:32.158Z,935.42
2017-12-27T01:23:32.161Z,935.46
2017-12-27T01:24:32.162Z,935.40
2017-12-27T01:25:32.164Z,935.36
2017-12-27T01:26:32.166Z,935.37
2017-12-27T01:27:32.169Z,935.29
2017-12-27T01:28:32.168Z,935.25
2017-12-27T01:29:32.172Z,935.15
2017-12-27T01:30:32.174Z,935.08
2017-12-27T01:31:32.176Z,935.13
2017-12-27T01:32:32.186Z,935.09
2017-12-27T01:33:32.178Z,935.13
2017-12-27T01:34:32.180Z,935.10
2017-12-27T01:35:32.184Z,935.03
2017-12-27T01:36:32.185Z,934.96
2017-12-27T01:37:32.185Z,934.93
2017-12-27T01:38:32.187Z,934.89
2017-12-27T01:39:32.189Z,934.87
2017-12-27T01:40:32.191Z,934.87
2017-12-27T01:41:32.191Z,934.86
2017-12-27T01:42:32.194Z,934.78
2017-12-27T01:43:32.196Z,934.74
2017-12-27T01:44:32.198Z,934.74
2017-12-27T01:45:32.199Z,934.69
2017-12-27T01:46:32.200Z,934.65
2017-12-27T01:47:32.203Z,934.64
2017-12-27T01:48:32.205Z,934.64
2017-12-27T01:49:32.206Z,934.65
2017-12-27T01:50:32.207Z,934.68
2017-12-27T01:51:32.210Z,934.63
2017-12-27T01:52:32.215Z,934.64
2017-12-27T01:53:32.212Z,934.59
2017-12-27T01:54:32.215Z,934.59
2017-12-27T01:55:32.217Z,934.55
2017-12-27T01:56:32.219Z,934.54
2017-12-27T01:57:32.220Z,934.42
2017-12-27T01:58:32.222Z,934.39
2017-12-27T01:59:32.224Z,934.38
2017-12-27T02:00:32.225Z,934.41
2017-12-27T02:01:32.227Z,934.41
2017-12-27T02:02:32.229Z,934.36
2017-12-27T02:03:32.231Z,934.36
2017-12-27T02:04:32.232Z,934.32
2017-12-27T02:05:32.233Z,934.25
2017-12-27T02:06:32.235Z,934.20
2017-12-27T02:07:32.238Z,934.14
2017-12-27T02:08:32.240Z,934.08
2017-12-27T02:09:32.242Z,934.11
2017-12-27T02:10:32.245Z,934.09
2017-12-27T02:11:32.244Z,934.08
2017-12-27T02:12:32.246Z,934.05
2017-12-27T02:13:32.249Z,934.04
2017-12-27T02:14:32.250Z,933.98
2017-12-27T02:15:32.252Z,933.94
2017-12-27T02:16:32.253Z,933.96
2017-12-27T02:17:32.257Z,933.92
2017-12-27T02:18:32.256Z,933.93
2017-12-27T02:19:32.260Z,933.92
2017-12-27T02:20:32.260Z,933.85
2017-12-27T02:21:32.263Z,933.82
2017-12-27T02:22:32.264Z,933.75
2017-12-27T02:23:32.265Z,933.73
2017-12-27T02:24:32.267Z,933.66
2017-12-27T02:25:32.268Z,933.70
2017-12-27T02:26:32.271Z,933.67
2017-12-27T02:27:32.272Z,933.63
2017-12-27T02:28:32.274Z,933.54
2017-12-27T02:29:32.276Z,933.50
2017-12-27T02:30:32.277Z,933.52
2017-12-27T02:31:32.279Z,933.49
2017-12-27T02:32:32.282Z,933.46
2017-12-27T02:33:32.282Z,933.40
2017-12-27T02:34:32.284Z,933.38
2017-12-27T02:35:32.286Z,933.33
2017-12-27T02:36:32.288Z,933.34
2017-12-27T02:37:32.289Z,933.28
2017-12-27T02:38:32.291Z,933.26
2017-12-27T02:39:32.293Z,933.26
2017-12-27T02:40:32.296Z,933.22
2017-12-27T02:41:32.296Z,933.17
2017-12-27T02:42:32.297Z,933.11
2017-12-27T02:43:32.300Z,933.15
2017-12-27T02:44:32.302Z,933.12
2017-12-27T02:45:32.302Z,933.11
2017-12-27T02:46:32.304Z,933.11
2017-12-27T02:47:32.313Z,933.05
2017-12-27T02:48:32.309Z,933.04
2017-12-27T02:49:32.309Z,933.02
2017-12-27T02:50:32.311Z,932.96
2017-12-27T02:51:32.313Z,932.92
2017-12-27T02:52:32.316Z,932.86
2017-12-27T02:53:32.316Z,932.76
2017-12-27T02:54:32.318Z,932.75
2017-12-27T02:55:32.320Z,932.69
2017-12-27T02:56:32.322Z,932.72
2017-12-27T02:57:32.324Z,932.68
2017-12-27T02:58:32.326Z,932.66
2017-12-27T02:59:32.326Z,932.60
2017-12-27T03:00:32.337Z,932.59
2017-12-27T03:01:32.331Z,932.56
2017-12-27T03:02:32.332Z,932.55
2017-12-27T03:03:32.334Z,932.49
2017-12-27T03:04:32.343Z,932.47
2017-12-27T03:05:32.343Z,932.45
2017-12-27T03:06:32.340Z,932.45
2017-12-27T03:07:32.341Z,932.42
2017-12-27T03:08:32.343Z,932.43
2017-12-27T03:09:32.343Z,932.40
2017-12-27T03:10:32.345Z,932.39
2017-12-27T03:11:32.347Z,932.38
2017-12-27T03:12:32.349Z,932.38
2017-12-27T03:13:32.359Z,932.33
2017-12-27T03:14:32.351Z,932.29
2017-12-27T03:15:32.354Z,932.27
2017-12-27T03:16:32.357Z,932.23
2017-12-27T03:17:32.357Z,932.18
2017-12-27T03:18:32.362Z,932.10
2017-12-27T03:19:32.360Z,932.08
2017-12-27T03:20:32.362Z,931.97
2017-12-27T03:21:32.363Z,931.94
2017-12-27T03:22:32.372Z,931.87
2017-12-27T03:23:32.367Z,931.84
2017-12-27T03:24:32.369Z,931.84
2017-12-27T03:25:32.370Z,931.78
2017-12-27T03:26:32.374Z,931.80
2017-12-27T03:27:32.374Z,931.79
2017-12-27T03:28:32.376Z,931.81
2017-12-27T03:29:32.376Z,931.77
2017-12-27T03:30:32.379Z,931.73
2017-12-27T03:31:32.379Z,931.67
2017-12-27T03:32:32.386Z,931.66
2017-12-27T03:33:32.383Z,931.64
2017-12-27T03:34:32.386Z,931.64
2017-12-27T03:35:32.387Z,931.61
2017-12-27T03:36:32.389Z,931.58
2017-12-27T03:37:32.391Z,931.59
2017-12-27T03:38:32.392Z,931.56
2017-12-27T03:39:32.399Z,931.57
2017-12-27T03:40:32.396Z,931.55
2017-12-27T03:41:32.397Z,931.52
2017-12-27T03:42:32.399Z,931.49
2017-12-27T03:43:32.401Z,931.47
2017-12-27T03:44:32.403Z,931.42
2017-12-27T03:45:32.402Z,931.41
2017-12-27T03:46:32.405Z,931.35
2017-12-27T03:47:32.410Z,931.30
2017-12-27T03:48:32.410Z,931.27
2017-12-27T03:49:32.416Z,931.19
2017-12-27T03:50:32.412Z,931.14
2017-12-27T03:51:32.422Z,931.12
2017-12-27T03:52:32.416Z,931.07
2017-12-27T03:53:32.417Z,931.01
2017-12-27T03:54:32.419Z,930.96
2017-12-27T03:55:32.420Z,930.92
2017-12-27T03:56:32.424Z,930.88
2017-12-27T03:57:32.424Z,930.82
2017-12-27T03:58:32.432Z,930.79
2017-12-27T03:59:32.432Z,930.73
2017-12-27T04:00:32.432Z,930.70
2017-12-27T04:01:32.434Z,930.68
2017-12-27T04:02:32.436Z,930.65
2017-12-27T04:03:32.437Z,930.63
2017-12-27T04:04:32.438Z,930.61
2017-12-27T04:05:32.436Z,930.60
2017-12-27T04:06:32.438Z,930.57
2017-12-27T04:07:32.444Z,930.54
2017-12-27T04:08:32.443Z,930.52
2017-12-27T04:09:32.444Z,930.53
2017-12-27T04:10:32.446Z,930.49
2017-12-27T04:11:32.447Z,930.53
2017-12-27T04:12:32.449Z,930.54
2017-12-27T04:13:32.450Z,930.53
2017-12-27T04:14:32.452Z,930.53
2017-12-27T04:15:32.455Z,930.57
2017-12-27T04:16:32.456Z,930.55
2017-12-27T04:17:32.457Z,930.56
2017-12-27T04:18:32.459Z,930.56
2017-12-27T04:19:32.462Z,930.61
2017-12-27T04:20:32.463Z,930.64
2017-12-27T04:21:32.464Z,930.58
2017-12-27T04:22:32.466Z,930.59
2017-12-27T04:23:32.468Z,930.59
2017-12-27T04:24:32.470Z,930.55
2017-12-27T04:25:32.471Z,930.52
2017-12-27T04:26:32.475Z,930.52
2017-12-27T04:27:32.475Z,930.51
2017-12-27T04:28:32.475Z,930.54
2017-12-27T04:29:32.478Z,930.55
2017-12-27T04:30:32.480Z,930.58
2017-12-27T04:31:32.482Z,930.59
2017-12-27T04:32:32.484Z,930.57
2017-12-27T04:33:32.485Z,930.53
2017-12-27T04:34:32.488Z,930.47
2017-12-27T04:35:32.489Z,930.48
2017-12-27T04:36:32.491Z,930.45
2017-12-27T04:37:32.492Z,930.37
2017-12-27T04:38:32.494Z,930.40
2017-12-27T04:39:32.497Z,930.39
2017-12-27T04:40:32.499Z,930.39
2017-12-27T04:41:32.503Z,930.40
2017-12-27T04:42:32.506Z,930.40
2017-12-27T04:43:32.504Z,930.42
2017-12-27T04:44:32.505Z,930.45
2017-12-27T04:45:32.508Z,930.45
2017-12-27T04:46:32.510Z,930.43
2017-12-27T04:47:32.512Z,930.43
2017-12-27T04:48:32.517Z,930.43
2017-12-27T04:49:32.515Z,930.47
2017-12-27T04:50:32.518Z,930.49
2017-12-27T04:51:32.520Z,930.51
2017-12-27T04:52:32.522Z,930.51
2017-12-27T04:53:32.523Z,930.49
2017-12-27T04:54:32.526Z,930.50
2017-12-27T04:55:32.528Z,930.51
2017-12-27T04:56:32.530Z,930.51
2017-12-27T04:57:32.533Z,930.46
2017-12-27T04:58:32.533Z,930.50
2017-12-27T04:59:32.535Z,930.50
2017-12-27T05:00:32.538Z,930.55
2017-12-27T05:01:32.560Z,930.60
2017-12-27T05:02:32.543Z,930.64
2017-12-27T05:03:32.545Z,930.42
2017-12-27T05:04:32.550Z,930.61
2017-12-27T05:05:32.549Z,930.65
2017-12-27T05:06:32.550Z,930.60
2017-12-27T05:07:32.552Z,930.60
2017-12-27T05:08:32.555Z,930.60
2017-12-27T05:09:32.557Z,930.59
2017-12-27T05:10:32.560Z,930.61
2017-12-27T05:11:32.561Z,930.57
2017-12-27T05:12:32.565Z,930.55
2017-12-27T05:13:32.564Z,930.50
2017-12-27T05:14:32.567Z,930.52
2017-12-27T05:15:32.568Z,930.50
2017-12-27T05:16:32.569Z,930.48
2017-12-27T05:17:32.571Z,930.48
2017-12-27T05:18:32.573Z,930.45
2017-12-27T05:19:32.574Z,930.36
2017-12-27T05:20:32.577Z,930.31
2017-12-27T05:21:32.577Z,930.30
2017-12-27T05:22:32.579Z,930.27
2017-12-27T05:23:32.581Z,930.27
2017-12-27T05:24:32.582Z,930.26
2017-12-27T05:25:32.583Z,930.30
2017-12-27T05:26:32.583Z,930.27
2017-12-27T05:27:32.586Z,930.23
2017-12-27T05:28:32.589Z,930.29
2017-12-27T05:29:32.589Z,930.29
2017-12-27T05:30:32.590Z,930.22
2017-12-27T05:31:32.593Z,930.24
2017-12-27T05:32:32.596Z,930.28
2017-12-27T05:33:32.596Z,930.28
2017-12-27T05:34:32.598Z,930.33
2017-12-27T05:35:32.602Z,930.29
2017-12-27T05:36:32.604Z,930.24
2017-12-27T05:37:32.602Z,930.25
2017-12-27T05:38:32.605Z,930.28
2017-12-27T05:39:32.607Z,930.31
2017-12-27T05:40:32.610Z,930.31
2017-12-27T05:41:32.611Z,930.33
2017-12-27T05:42:32.613Z,930.37
2017-12-27T05:43:32.614Z,930.38
2017-12-27T05:44:32.617Z,930.44
2017-12-27T05:45:32.617Z,930.47
2017-12-27T05:46:32.619Z,930.48
2017-12-27T05:47:32.623Z,930.54
2017-12-27T05:48:32.624Z,930.59
2017-12-27T05:49:32.625Z,930.62
2017-12-27T05:50:32.626Z,930.62
2017-12-27T05:51:32.630Z,930.66
2017-12-27T05:52:32.632Z,930.59
2017-12-27T05:53:32.633Z,930.65
2017-12-27T05:54:32.635Z,930.66
2017-12-27T05:55:32.637Z,930.71
2017-12-27T05:56:32.640Z,930.73
2017-12-27T05:57:32.640Z,930.72
2017-12-27T05:58:32.648Z,930.78
2017-12-27T05:59:32.649Z,930.75
2017-12-27T06:00:32.651Z,930.77
2017-12-27T06:01:32.652Z,930.80
2017-12-27T06:02:32.652Z,930.78
2017-12-27T06:03:32.654Z,930.77
2017-12-27T06:04:32.655Z,930.82
2017-12-27T06:05:32.655Z,930.78
2017-12-27T06:06:32.665Z,930.78
2017-12-27T06:07:32.661Z,930.84
2017-12-27T06:08:32.672Z,930.81
2017-12-27T06:09:32.664Z,930.74
2017-12-27T06:10:32.667Z,930.73
2017-12-27T06:11:32.669Z,930.74
2017-12-27T06:12:32.670Z,930.77
2017-12-27T06:13:32.672Z,930.81
2017-12-27T06:14:32.674Z,930.84
2017-12-27T06:15:32.678Z,930.83
2017-12-27T06:16:32.679Z,930.85
2017-12-27T06:17:32.681Z,930.85
2017-12-27T06:18:32.682Z,930.90
2017-12-27T06:19:32.688Z,930.87
2017-12-27T06:20:32.693Z,930.88
2017-12-27T06:21:32.687Z,930.85
2017-12-27T06:22:32.690Z,930.86
2017-12-27T06:23:32.692Z,930.82
2017-12-27T06:24:32.698Z,930.80
2017-12-27T06:25:32.695Z,930.81
2017-12-27T06:26:32.697Z,930.78
2017-12-27T06:27:32.698Z,930.70
2017-12-27T06:28:32.701Z,930.65
2017-12-27T06:29:32.701Z,930.58
2017-12-27T06:30:32.705Z,930.56
2017-12-27T06:31:32.705Z,930.54
2017-12-27T06:32:32.709Z,930.50
2017-12-27T06:33:32.708Z,930.42
2017-12-27T06:34:32.711Z,930.39
2017-12-27T06:35:32.712Z,930.38
2017-12-27T06:36:32.714Z,930.34
2017-12-27T06:37:32.716Z,930.29
2017-12-27T06:38:32.714Z,930.27
2017-12-27T06:39:32.718Z,930.30
2017-12-27T06:40:32.719Z,930.25
2017-12-27T06:41:32.720Z,930.18
2017-12-27T06:42:32.723Z,930.15
2017-12-27T06:43:32.724Z,930.17
2017-12-27T06:44:32.727Z,930.11
2017-12-27T06:45:32.727Z,930.17
2017-12-27T06:46:32.729Z,930.14
2017-12-27T06:47:32.731Z,930.16
2017-12-27T06:48:32.740Z,930.14
2017-12-27T06:49:32.741Z,930.12
2017-12-27T06:50:32.742Z,930.11
2017-12-27T06:51:32.739Z,930.12
2017-12-27T06:52:32.741Z,930.15
2017-12-27T06:53:32.743Z,930.17
2017-12-27T06:54:32.743Z,930.18
2017-12-27T06:55:32.745Z,930.21
2017-12-27T06:56:32.746Z,930.27
2017-12-27T06:57:32.746Z,930.26
2017-12-27T06:58:32.747Z,930.23
2017-12-27T06:59:32.749Z,930.27
2017-12-27T07:00:32.750Z,930.27
2017-12-27T07:01:32.751Z,930.26
2017-12-27T07:02:32.752Z,930.21
2017-12-27T07:03:32.754Z,930.22
2017-12-27T07:04:32.756Z,930.21
2017-12-27T07:05:32.757Z,930.24
2017-12-27T07:06:32.759Z,930.16
2017-12-27T07:07:32.762Z,930.14
2017-12-27T07:08:32.762Z,930.09
2017-12-27T07:09:32.770Z,930.05
2017-12-27T07:10:32.765Z,930.04
2017-12-27T07:11:32.766Z,930.04
2017-12-27T07:12:32.769Z,929.95
2017-12-27T07:13:32.770Z,929.94
2017-12-27T07:14:32.772Z,929.79
2017-12-27T07:15:32.775Z,929.74
2017-12-27T07:16:32.776Z,929.75
2017-12-27T07:17:32.777Z,929.77
2017-12-27T07:18:32.778Z,929.77
2017-12-27T07:19:32.779Z,929.80
2017-12-27T07:20:32.782Z,929.80
2017-12-27T07:21:32.784Z,929.79
2017-12-27T07:22:32.786Z,929.74
2017-12-27T07:23:32.788Z,929.73
2017-12-27T07:24:32.789Z,929.69
2017-12-27T07:25:32.791Z,929.75
2017-12-27T07:26:32.792Z,929.69
2017-12-27T07:27:32.804Z,929.63
2017-12-27T07:28:32.797Z,929.69
2017-12-27T07:29:32.800Z,929.70
2017-12-27T07:30:32.800Z,929.75
2017-12-27T07:31:32.803Z,929.81
2017-12-27T07:32:32.813Z,929.72
2017-12-27T07:33:32.807Z,929.72
2017-12-27T07:34:32.808Z,929.68
2017-12-27T07:35:32.810Z,929.68
2017-12-27T07:36:32.813Z,929.69
2017-12-27T07:37:32.814Z,929.67
2017-12-27T07:38:32.817Z,929.62
2017-12-27T07:39:32.819Z,929.55
2017-12-27T07:40:32.822Z,929.55
2017-12-27T07:41:32.822Z,929.50
2017-12-27T07:42:32.824Z,929.50
2017-12-27T07:43:32.827Z,929.50
2017-12-27T07:44:32.829Z,929.44
2017-12-27T07:45:32.830Z,929.36
2017-12-27T07:46:32.832Z,929.31
2017-12-27T07:47:32.835Z,929.27
2017-12-27T07:48:32.837Z,929.23
2017-12-27T07:49:32.839Z,929.16
2017-12-27T07:50:32.844Z,929.22
2017-12-27T07:51:32.844Z,929.27
2017-12-27T07:52:32.861Z,929.24
2017-12-27T07:53:32.862Z,929.30
2017-12-27T07:54:32.852Z,929.31
2017-12-27T07:55:32.856Z,929.36
2017-12-27T07:56:32.857Z,929.34
2017-12-27T07:57:32.861Z,929.38
2017-12-27T07:58:32.862Z,929.39
2017-12-27T07:59:32.865Z,929.46
2017-12-27T08:00:32.868Z,929.41
2017-12-27T08:01:32.870Z,929.45
2017-12-27T08:02:32.873Z,929.38
2017-12-27T08:03:32.875Z,929.38
2017-12-27T08:04:32.878Z,929.41
2017-12-27T08:05:32.881Z,929.40
2017-12-27T08:06:32.882Z,929.41
2017-12-27T08:07:32.885Z,929.41
2017-12-27T08:08:32.888Z,929.40
2017-12-27T08:09:32.889Z,929.40
2017-12-27T08:10:32.892Z,929.37
2017-12-27T08:11:32.894Z,929.33
2017-12-27T08:12:32.896Z,929.34
2017-12-27T08:13:32.905Z,929.36
2017-12-27T08:14:32.902Z,929.36
2017-12-27T08:15:32.906Z,929.33
2017-12-27T08:16:32.906Z,929.32
2017-12-27T08:17:32.906Z,929.31
2017-12-27T08:18:32.911Z,929.28
2017-12-27T08:19:32.910Z,929.22
2017-12-27T08:20:32.913Z,929.18
2017-12-27T08:21:32.918Z,929.16
2017-12-27T08:22:32.916Z,929.13
2017-12-27T08:23:32.918Z,929.12
2017-12-27T08:24:32.920Z,929.14
2017-12-27T08:25:32.924Z,929.11
2017-12-27T08:26:32.923Z,929.18
2017-12-27T08:27:32.928Z,929.15
2017-12-27T08:28:32.929Z,929.10
2017-12-27T08:29:32.928Z,929.14
2017-12-27T08:30:32.942Z,929.08
2017-12-27T08:31:32.936Z,929.07
2017-12-27T08:32:32.938Z,929.13
2017-12-27T08:33:32.937Z,929.06
2017-12-27T08:34:32.941Z,929.02
2017-12-27T08:35:32.943Z,929.01
2017-12-27T08:36:32.951Z,928.94
2017-12-27T08:37:32.952Z,928.88
2017-12-27T08:38:32.946Z,928.90
2017-12-27T08:39:32.948Z,928.86
2017-12-27T08:40:32.950Z,928.81
2017-12-27T08:41:32.950Z,928.82
2017-12-27T08:42:32.952Z,928.75
2017-12-27T08:43:32.953Z,928.71
2017-12-27T08:44:32.958Z,928.71
2017-12-27T08:45:32.957Z,928.68
2017-12-27T08:46:32.964Z,928.67
2017-12-27T08:47:32.961Z,928.65
2017-12-27T08:48:32.964Z,928.67
2017-12-27T08:49:32.964Z,928.71
2017-12-27T08:50:32.966Z,928.67
2017-12-27T08:51:32.968Z,928.63
2017-12-27T08:52:32.970Z,928.61
2017-12-27T08:53:32.971Z,928.63
2017-12-27T08:54:32.973Z,928.63
2017-12-27T08:55:32.975Z,928.65
2017-12-27T08:56:32.976Z,928.62
2017-12-27T08:57:32.978Z,928.65
2017-12-27T08:58:32.979Z,928.66
2017-12-27T08:59:32.982Z,928.67
2017-12-27T09:00:32.985Z,928.60
2017-12-27T09:01:32.985Z,928.54
2017-12-27T09:02:32.988Z,928.43
2017-12-27T09:03:32.990Z,928.40
2017-12-27T09:04:32.993Z,928.35
2017-12-27T09:05:32.994Z,928.33
2017-12-27T09:06:32.995Z,928.31
2017-12-27T09:07:32.998Z,928.32
2017-12-27T09:08:33.000Z,928.32
2017-12-27T09:09:33.002Z,928.30
2017-12-27T09:10:33.014Z,928.30
2017-12-27T09:11:33.007Z,928.30
2017-12-27T09:12:33.017Z,928.35
2017-12-27T09:13:33.009Z,928.30
2017-12-27T09:14:33.058Z,928.33
2017-12-27T09:15:33.018Z,928.30
2017-12-27T09:16:33.019Z,928.28
2017-12-27T09:17:33.017Z,928.27
2017-12-27T09:18:33.022Z,928.27
2017-12-27T09:19:33.030Z,928.23
2017-12-27T09:20:33.024Z,928.17
2017-12-27T09:21:33.027Z,928.19
2017-12-27T09:22:33.031Z,928.17
2017-12-27T09:23:33.031Z,928.14
2017-12-27T09:24:33.032Z,928.14
2017-12-27T09:25:33.032Z,928.14
2017-12-27T09:26:33.038Z,928.19
2017-12-27T09:27:33.039Z,928.23
2017-12-27T09:28:33.043Z,928.21
2017-12-27T09:29:33.040Z,928.20
2017-12-27T09:30:33.042Z,928.14
2017-12-27T09:31:33.047Z,928.18
2017-12-27T09:32:33.046Z,928.19
2017-12-27T09:33:33.048Z,928.25
2017-12-27T09:34:33.050Z,928.25
2017-12-27T09:35:33.051Z,928.23
2017-12-27T09:36:33.055Z,928.23
2017-12-27T09:37:33.056Z,928.24
2017-12-27T09:38:33.058Z,928.22
2017-12-27T09:39:33.059Z,928.19
2017-12-27T09:40:33.060Z,928.16
2017-12-27T09:41:33.061Z,928.08
2017-12-27T09:42:33.065Z,928.07
2017-12-27T09:43:33.066Z,928.08
2017-12-27T09:44:33.069Z,928.04
2017-12-27T09:45:33.070Z,928.06
2017-12-27T09:46:33.071Z,928.12
2017-12-27T09:47:33.076Z,928.10
2017-12-27T09:48:33.077Z,928.13
2017-12-27T09:49:33.079Z,928.13
2017-12-27T09:50:33.081Z,928.12
2017-12-27T09:51:33.083Z,928.16
2017-12-27T09:52:33.086Z,928.15
2017-12-27T09:53:33.087Z,928.21
2017-12-27T09:54:33.089Z,928.19
2017-12-27T09:55:33.093Z,928.19
2017-12-27T09:56:33.093Z,928.20
2017-12-27T09:57:33.096Z,928.21
2017-12-27T09:58:33.098Z,928.28
2017-12-27T09:59:33.100Z,928.34
2017-12-27T10:00:33.105Z,928.30
2017-12-27T10:01:33.105Z,928.31
2017-12-27T10:02:33.108Z,928.26
2017-12-27T10:03:33.109Z,928.20
2017-12-27T10:04:33.123Z,928.19
2017-12-27T10:05:33.115Z,928.14
2017-12-27T10:06:33.117Z,928.13
2017-12-27T10:07:33.120Z,928.11
2017-12-27T10:08:33.121Z,928.08
2017-12-27T10:09:33.125Z,928.05
2017-12-27T10:10:33.126Z,928.03
2017-12-27T10:11:33.130Z,927.94
2017-12-27T10:12:33.138Z,927.97
2017-12-27T10:13:33.134Z,927.96
2017-12-27T10:14:33.137Z,927.92
2017-12-27T10:15:33.139Z,927.93
2017-12-27T10:16:33.142Z,927.90
2017-12-27T10:17:33.145Z,927.85
2017-12-27T10:18:33.145Z,927.82
2017-12-27T10:19:33.149Z,927.79
2017-12-27T10:20:33.151Z,927.78
2017-12-27T10:21:33.153Z,927.74
2017-12-27T10:22:33.156Z,927.70
2017-12-27T10:23:33.159Z,927.70
2017-12-27T10:24:33.161Z,927.67
2017-12-27T10:25:33.164Z,927.61
2017-12-27T10:26:33.166Z,927.60
2017-12-27T10:27:33.168Z,927.58
2017-12-27T10:28:33.173Z,927.48
2017-12-27T10:29:33.173Z,927.52
2017-12-27T10:30:33.176Z,927.53
2017-12-27T10:31:33.182Z,927.54
2017-12-27T10:32:33.182Z,927.54
2017-12-27T10:33:33.184Z,927.57
2017-12-27T10:34:33.186Z,927.52
2017-12-27T10:35:33.189Z,927.55
2017-12-27T10:36:33.194Z,927.55
2017-12-27T10:37:33.194Z,927.54
2017-12-27T10:38:33.199Z,927.52
2017-12-27T10:39:33.200Z,927.50
2017-12-27T10:40:33.203Z,927.51
2017-12-27T10:41:33.202Z,927.47
2017-12-27T10:42:33.206Z,927.50
2017-12-27T10:43:33.209Z,927.45
2017-12-27T10:44:33.212Z,927.50
2017-12-27T10:45:33.213Z,927.44
2017-12-27T10:46:33.217Z,927.44
2017-12-27T10:47:33.219Z,927.37
2017-12-27T10:48:33.223Z,927.37
2017-12-27T10:49:33.222Z,927.36
2017-12-27T10:50:33.226Z,927.36
2017-12-27T10:51:33.227Z,927.36
2017-12-27T10:52:33.231Z,927.32
2017-12-27T10:53:33.231Z,927.30
2017-12-27T10:54:33.235Z,927.33
2017-12-27T10:55:33.263Z,927.33
2017-12-27T10:56:33.238Z,927.38
2017-12-27T10:57:33.242Z,927.36
2017-12-27T10:58:33.242Z,927.29
2017-12-27T10:59:33.244Z,927.23
2017-12-27T11:00:33.247Z,927.24
2017-12-27T11:01:33.248Z,927.30
2017-12-27T11:02:33.251Z,927.28
2017-12-27T11:03:33.254Z,927.30
2017-12-27T11:04:33.258Z,927.33
2017-12-27T11:05:33.255Z,927.38
2017-12-27T11:06:33.262Z,927.36
2017-12-27T11:07:33.261Z,927.39
2017-12-27T11:08:33.266Z,927.32
2017-12-27T11:09:33.266Z,927.33
2017-12-27T11:10:33.269Z,927.32
2017-12-27T11:11:33.270Z,927.26
2017-12-27T11:12:33.274Z,927.27
2017-12-27T11:13:33.277Z,927.25
2017-12-27T11:14:33.278Z,927.22
2017-12-27T11:15:33.282Z,927.18
2017-12-27T11:16:33.284Z,927.18
2017-12-27T11:17:33.288Z,927.23
2017-12-27T11:18:33.290Z,927.22
2017-12-27T11:19:33.294Z,927.26
2017-12-27T11:20:33.294Z,927.23
2017-12-27T11:21:33.296Z,927.24
2017-12-27T11:22:33.300Z,927.26
2017-12-27T11:23:33.301Z,927.25
2017-12-27T11:24:33.306Z,927.25
2017-12-27T11:25:33.306Z,927.29
2017-12-27T11:26:33.309Z,927.25
2017-12-27T11:27:33.315Z,927.25
2017-12-27T11:28:33.316Z,927.28
2017-12-27T11:29:33.317Z,927.29
2017-12-27T11:30:33.322Z,927.26
2017-12-27T11:31:33.322Z,927.23
2017-12-27T11:32:33.326Z,927.20
2017-12-27T11:33:33.327Z,927.22
2017-12-27T11:34:33.330Z,927.22
2017-12-27T11:35:33.333Z,927.29
2017-12-27T11:36:33.336Z,927.27
2017-12-27T11:37:33.338Z,927.29
2017-12-27T11:38:33.339Z,927.29
2017-12-27T11:39:33.343Z,927.21
2017-12-27T11:40:33.346Z,927.22
2017-12-27T11:41:33.347Z,927.24
2017-12-27T11:42:33.350Z,927.18
2017-12-27T11:43:33.353Z,927.20
2017-12-27T11:44:33.359Z,927.19
2017-12-27T11:45:33.360Z,927.18
2017-12-27T11:46:33.360Z,927.15
2017-12-27T11:47:33.364Z,927.11
2017-12-27T11:48:33.366Z,927.04
2017-12-27T11:49:33.368Z,927.04
2017-12-27T11:50:33.371Z,927.01
2017-12-27T11:51:33.373Z,927.03
2017-12-27T11:52:33.376Z,927.06
2017-12-27T11:53:33.378Z,927.11
2017-12-27T11:54:33.381Z,927.10
2017-12-27T11:55:33.384Z,927.15
2017-12-27T11:56:33.387Z,927.17
2017-12-27T11:57:33.388Z,927.13
2017-12-27T11:58:33.394Z,927.14
2017-12-27T11:59:33.394Z,927.14
2017-12-27T12:00:33.398Z,927.12
2017-12-27T12:01:33.399Z,927.11
2017-12-27T12:02:33.402Z,927.13
2017-12-27T12:03:33.405Z,927.18
2017-12-27T12:04:33.407Z,927.16
2017-12-27T12:05:33.410Z,927.19
2017-12-27T12:06:33.418Z,927.18
2017-12-27T12:07:33.414Z,927.20
2017-12-27T12:08:33.416Z,927.19
2017-12-27T12:09:33.418Z,927.20
2017-12-27T12:10:33.422Z,927.19
2017-12-27T12:11:33.425Z,927.21
2017-12-27T12:12:33.427Z,927.23
2017-12-27T12:13:33.429Z,927.24
2017-12-27T12:14:33.432Z,927.16
2017-12-27T12:15:33.435Z,927.19
2017-12-27T12:16:33.437Z,927.16
2017-12-27T12:17:33.439Z,927.17
2017-12-27T12:18:33.441Z,927.14
2017-12-27T12:19:33.445Z,927.12
2017-12-27T12:20:33.450Z,927.18
2017-12-27T12:21:33.451Z,927.14
2017-12-27T12:22:33.453Z,927.14
2017-12-27T12:23:33.455Z,927.14
2017-12-27T12:24:33.458Z,927.12
2017-12-27T12:25:33.460Z,927.09
2017-12-27T12:26:33.462Z,927.02
2017-12-27T12:27:33.465Z,927.00
2017-12-27T12:28:33.468Z,926.99